TimeCST,TemperatureF,Dew PointF,Humidity,Sea Level PressureIn,VisibilityMPH,Wind Direction,Wind SpeedMPH,Gust SpeedMPH,PrecipitationIn,Events,Conditions,WindDirDegrees,DateUTC
12:51 AM,37.0,28.0,70,30.40,10.0,SW,5.8,-,N/A,,Overcast,230,2014-01-25 06:51:00
1:51 AM,35.1,28.9,78,30.39,10.0,West,4.6,-,N/A,,Partly Cloudy,270,2014-01-25 07:51:00
2:51 AM,33.1,28.0,82,30.37,10.0,WSW,4.6,-,N/A,,Clear,250,2014-01-25 08:51:00
3:51 AM,32.0,28.0,85,30.36,10.0,WSW,4.6,-,N/A,,Clear,250,2014-01-25 09:51:00
4:51 AM,30.0,27.0,88,30.35,10.0,West,3.5,-,N/A,,Clear,280,2014-01-25 10:51:00
5:51 AM,30.9,28.0,89,30.34,10.0,West,3.5,-,N/A,,Clear,280,2014-01-25 11:51:00
6:51 AM,28.9,26.1,89,30.34,10.0,WSW,5.8,-,N/A,,Partly Cloudy,240,2014-01-25 12:51:00
7:51 AM,30.0,27.0,88,30.34,10.0,WSW,4.6,-,N/A,,Partly Cloudy,240,2014-01-25 13:51:00
8:51 AM,37.9,32.0,79,30.33,10.0,WSW,9.2,-,N/A,,Partly Cloudy,240,2014-01-25 14:51:00
9:51 AM,43.0,33.1,68,30.33,10.0,WSW,5.8,-,N/A,,Scattered Clouds,250,2014-01-25 15:51:00
10:51 AM,48.0,30.9,52,30.32,10.0,West,3.5,-,N/A,,Scattered Clouds,280,2014-01-25 16:51:00
11:51 AM,53.1,30.9,43,30.27,10.0,West,9.2,-,N/A,,Scattered Clouds,260,2014-01-25 17:51:00
12:51 PM,57.0,30.9,37,30.23,10.0,West,9.2,-,N/A,,Scattered Clouds,280,2014-01-25 18:51:00
1:51 PM,61.0,30.9,32,30.18,10.0,West,9.2,-,N/A,,Mostly Cloudy,270,2014-01-25 19:51:00
2:51 PM,63.0,30.0,29,30.14,10.0,West,10.4,-,N/A,,Mostly Cloudy,280,2014-01-25 20:51:00
3:51 PM,64.0,28.9,27,30.12,10.0,Variable,6.9,-,N/A,,Mostly Cloudy,0,2014-01-25 21:51:00
4:51 PM,64.0,30.0,28,30.12,10.0,West,5.8,-,N/A,,Overcast,270,2014-01-25 22:51:00
5:51 PM,61.0,32.0,34,30.11,10.0,Calm,Calm,-,N/A,,Overcast,0,2014-01-25 23:51:00
6:51 PM,55.0,39.0,55,30.11,10.0,East,3.5,-,N/A,,Mostly Cloudy,90,2014-01-26 00:51:00
7:51 PM,48.9,39.9,71,30.11,10.0,South,9.2,-,N/A,,Mostly Cloudy,170,2014-01-26 01:51:00
8:51 PM,46.0,39.0,76,30.11,10.0,South,6.9,-,N/A,,Mostly Cloudy,180,2014-01-26 02:51:00
9:51 PM,45.0,37.9,76,30.10,10.0,SSE,5.8,-,N/A,,Mostly Cloudy,150,2014-01-26 03:51:00
10:51 PM,45.0,37.0,74,30.09,10.0,South,4.6,-,N/A,,Mostly Cloudy,180,2014-01-26 04:51:00
11:51 PM,44.1,37.0,76,30.08,10.0,South,5.8,-,N/A,,Mostly Cloudy,190,2014-01-26 05:51:00